sensor_id;sensor_type;location;lat;lon;timestamp;pressure;altitude;pressure_sealevel;temperature;humidity
55761;BME280;41679;51.440;-2.012;2022-08-19T00:01:17;100271.25;;;18.70;100.00
55761;BME280;41679;51.440;-2.012;2022-08-19T00:03:42;100264.06;;;18.69;100.00
55761;BME280;41679;51.440;-2.012;2022-08-19T00:06:09;100270.72;;;18.73;100.00
55761;BME280;41679;51.440;-2.012;2022-08-19T00:08:35;100263.56;;;18.72;100.00
55761;BME280;41679;51.440;-2.012;2022-08-19T00:11:00;100263.91;;;18.75;100.00
55761;BME280;41679;51.440;-2.012;2022-08-19T00:13:26;100253.66;;;18.71;100.00
55761;BME280;41679;51.440;-2.012;2022-08-19T00:15:55;100254.50;;;18.71;100.00
55761;BME280;41679;51.440;-2.012;2022-08-19T00:18:21;100253.94;;;18.69;100.00
55761;BME280;41679;51.440;-2.012;2022-08-19T00:20:46;100254.78;;;18.70;100.00
55761;BME280;41679;51.440;-2.012;2022-08-19T00:23:12;100259.44;;;18.69;100.00
55761;BME280;41679;51.440;-2.012;2022-08-19T00:25:38;100254.50;;;18.71;100.00
55761;BME280;41679;51.440;-2.012;2022-08-19T00:28:04;100246.78;;;18.68;100.00
55761;BME280;41679;51.440;-2.012;2022-08-19T00:30:30;100249.53;;;18.68;100.00
55761;BME280;41679;51.440;-2.012;2022-08-19T00:32:56;100249.81;;;18.67;100.00
55761;BME280;41679;51.440;-2.012;2022-08-19T00:35:22;100249.22;;;18.65;100.00
55761;BME280;41679;51.440;-2.012;2022-08-19T00:37:49;100250.31;;;18.64;100.00
55761;BME280;41679;51.440;-2.012;2022-08-19T00:40:15;100251.13;;;18.59;100.00
55761;BME280;41679;51.440;-2.012;2022-08-19T00:42:41;100240.38;;;18.57;100.00
55761;BME280;41679;51.440;-2.012;2022-08-19T00:45:21;100247.78;;;18.57;100.00
55761;BME280;41679;51.440;-2.012;2022-08-19T00:47:47;100250.84;;;18.61;100.00
55761;BME280;41679;51.440;-2.012;2022-08-19T00:50:15;100250.31;;;18.64;100.00
55761;BME280;41679;51.440;-2.012;2022-08-19T00:52:44;100252.56;;;18.67;100.00
55761;BME280;41679;51.440;-2.012;2022-08-19T00:55:16;100255.31;;;18.67;100.00
55761;BME280;41679;51.440;-2.012;2022-08-19T00:57:47;100259.94;;;18.66;100.00
55761;BME280;41679;51.440;-2.012;2022-08-19T01:00:15;100257.16;;;18.61;100.00
55761;BME280;41679;51.440;-2.012;2022-08-19T01:02:42;100256.78;;;18.47;100.00
55761;BME280;41679;51.440;-2.012;2022-08-19T01:05:16;100251.19;;;18.37;100.00
55761;BME280;41679;51.440;-2.012;2022-08-19T01:07:44;100260.09;;;18.22;100.00
55761;BME280;41679;51.440;-2.012;2022-08-19T01:10:12;100258.16;;;18.18;100.00
55761;BME280;41679;51.440;-2.012;2022-08-19T01:12:39;100258.91;;;18.13;100.00
55761;BME280;41679;51.440;-2.012;2022-08-19T01:15:07;100255.31;;;18.07;100.00
55761;BME280;41679;51.440;-2.012;2022-08-19T01:17:35;100259.97;;;18.07;100.00
55761;BME280;41679;51.440;-2.012;2022-08-19T01:20:03;100259.91;;;18.02;100.00
55761;BME280;41679;51.440;-2.012;2022-08-19T01:25:05;100260.09;;;17.95;100.00
55761;BME280;41679;51.440;-2.012;2022-08-19T01:27:42;100252.91;;;17.89;100.00
55761;BME280;41679;51.440;-2.012;2022-08-19T01:30:14;100258.34;;;17.84;100.00
55761;BME280;41679;51.440;-2.012;2022-08-19T01:32:40;100256.94;;;17.81;100.00
55761;BME280;41679;51.440;-2.012;2022-08-19T01:35:06;100263.72;;;17.79;100.00
55761;BME280;41679;51.440;-2.012;2022-08-19T01:37:52;100253.91;;;17.83;100.00
55761;BME280;41679;51.440;-2.012;2022-08-19T01:40:21;100268.50;;;17.83;100.00
55761;BME280;41679;51.440;-2.012;2022-08-19T01:42:48;100265.75;;;17.83;100.00
55761;BME280;41679;51.440;-2.012;2022-08-19T01:45:14;100258.25;;;17.79;100.00
55761;BME280;41679;51.440;-2.012;2022-08-19T01:47:40;100255.09;;;17.70;100.00
55761;BME280;41679;51.440;-2.012;2022-08-19T01:50:07;100255.63;;;17.67;100.00
55761;BME280;41679;51.440;-2.012;2022-08-19T01:52:38;100257.84;;;17.70;100.00
55761;BME280;41679;51.440;-2.012;2022-08-19T01:55:07;100265.84;;;17.71;100.00
55761;BME280;41679;51.440;-2.012;2022-08-19T01:57:33;100268.34;;;17.73;100.00
55761;BME280;41679;51.440;-2.012;2022-08-19T01:59:59;100266.41;;;17.74;100.00
55761;BME280;41679;51.440;-2.012;2022-08-19T02:02:25;100265.91;;;17.77;100.00
55761;BME280;41679;51.440;-2.012;2022-08-19T02:04:50;100267.53;;;17.78;100.00
55761;BME280;41679;51.440;-2.012;2022-08-19T02:07:21;100278.28;;;17.79;100.00
55761;BME280;41679;51.440;-2.012;2022-08-19T02:09:47;100269.41;;;17.72;100.00
55761;BME280;41679;51.440;-2.012;2022-08-19T02:12:14;100272.34;;;17.65;100.00
55761;BME280;41679;51.440;-2.012;2022-08-19T02:14:40;100276.09;;;17.59;100.00
55761;BME280;41679;51.440;-2.012;2022-08-19T02:17:06;100277.63;;;17.50;100.00
55761;BME280;41679;51.440;-2.012;2022-08-19T02:19:31;100273.41;;;17.42;100.00
55761;BME280;41679;51.440;-2.012;2022-08-19T02:22:00;100265.56;;;17.29;100.00
55761;BME280;41679;51.440;-2.012;2022-08-19T02:24:27;100281.94;;;17.24;100.00
55761;BME280;41679;51.440;-2.012;2022-08-19T02:27:13;100276.13;;;17.20;100.00
55761;BME280;41679;51.440;-2.012;2022-08-19T02:29:38;100286.53;;;17.18;100.00
55761;BME280;41679;51.440;-2.012;2022-08-19T02:32:04;100288.16;;;17.19;100.00
55761;BME280;41679;51.440;-2.012;2022-08-19T02:34:29;100285.44;;;17.19;100.00
55761;BME280;41679;51.440;-2.012;2022-08-19T02:36:56;100294.81;;;17.23;100.00
55761;BME280;41679;51.440;-2.012;2022-08-19T02:39:21;100296.72;;;17.23;100.00
55761;BME280;41679;51.440;-2.012;2022-08-19T02:41:47;100298.31;;;17.19;100.00
55761;BME280;41679;51.440;-2.012;2022-08-19T02:44:12;100289.13;;;17.08;100.00
55761;BME280;41679;51.440;-2.012;2022-08-19T02:46:37;100290.94;;;17.02;100.00
55761;BME280;41679;51.440;-2.012;2022-08-19T02:49:07;100302.31;;;16.94;100.00
55761;BME280;41679;51.440;-2.012;2022-08-19T02:51:35;100296.94;;;16.82;100.00
55761;BME280;41679;51.440;-2.012;2022-08-19T02:54:02;100302.09;;;16.79;100.00
55761;BME280;41679;51.440;-2.012;2022-08-19T02:56:30;100290.50;;;16.77;100.00
55761;BME280;41679;51.440;-2.012;2022-08-19T02:58:56;100296.13;;;16.70;100.00
55761;BME280;41679;51.440;-2.012;2022-08-19T03:01:28;100295.81;;;16.67;100.00
55761;BME280;41679;51.440;-2.012;2022-08-19T03:03:54;100297.66;;;16.61;100.00
55761;BME280;41679;51.440;-2.012;2022-08-19T03:06:21;100302.25;;;16.60;100.00
55761;BME280;41679;51.440;-2.012;2022-08-19T03:08:48;100296.31;;;16.63;100.00
55761;BME280;41679;51.440;-2.012;2022-08-19T03:11:25;100297.66;;;16.61;100.00
55761;BME280;41679;51.440;-2.012;2022-08-19T03:13:51;100297.19;;;16.52;100.00
55761;BME280;41679;51.440;-2.012;2022-08-19T03:16:21;100303.91;;;16.45;100.00
55761;BME280;41679;51.440;-2.012;2022-08-19T03:18:48;100299.19;;;16.40;100.00
55761;BME280;41679;51.440;-2.012;2022-08-19T03:21:22;100302.75;;;16.40;100.00
55761;BME280;41679;51.440;-2.012;2022-08-19T03:23:48;100316.09;;;16.37;100.00
55761;BME280;41679;51.440;-2.012;2022-08-19T03:29:04;100309.81;;;16.53;100.00
55761;BME280;41679;51.440;-2.012;2022-08-19T03:31:30;100312.38;;;16.60;100.00
55761;BME280;41679;51.440;-2.012;2022-08-19T03:33:56;100313.88;;;16.68;100.00
55761;BME280;41679;51.440;-2.012;2022-08-19T03:36:25;100313.75;;;16.74;100.00
55761;BME280;41679;51.440;-2.012;2022-08-19T03:38:54;100308.63;;;16.78;100.00
55761;BME280;41679;51.440;-2.012;2022-08-19T03:41:24;100310.84;;;16.81;100.00
55761;BME280;41679;51.440;-2.012;2022-08-19T03:43:51;100314.69;;;16.80;100.00
55761;BME280;41679;51.440;-2.012;2022-08-19T03:46:21;100316.22;;;16.76;100.00
55761;BME280;41679;51.440;-2.012;2022-08-19T03:48:48;100316.91;;;16.66;100.00
55761;BME280;41679;51.440;-2.012;2022-08-19T03:51:29;100313.13;;;16.55;100.00
55761;BME280;41679;51.440;-2.012;2022-08-19T03:53:57;100319.34;;;16.51;100.00
55761;BME280;41679;51.440;-2.012;2022-08-19T03:56:45;100330.44;;;16.44;100.00
55761;BME280;41679;51.440;-2.012;2022-08-19T03:59:13;100316.53;;;16.46;100.00
55761;BME280;41679;51.440;-2.012;2022-08-19T04:01:39;100323.91;;;16.45;100.00
55761;BME280;41679;51.440;-2.012;2022-08-19T04:04:04;100317.69;;;16.50;100.00
55761;BME280;41679;51.440;-2.012;2022-08-19T04:06:34;100321.09;;;16.57;100.00
55761;BME280;41679;51.440;-2.012;2022-08-19T04:09:02;100312.31;;;16.55;100.00
55761;BME280;41679;51.440;-2.012;2022-08-19T04:14:28;100330.13;;;16.57;100.00
55761;BME280;41679;51.440;-2.012;2022-08-19T04:16:57;100331.81;;;16.58;100.00
55761;BME280;41679;51.440;-2.012;2022-08-19T04:19:22;100340.50;;;16.55;100.00
55761;BME280;41679;51.440;-2.012;2022-08-19T04:21:52;100336.00;;;16.49;100.00
55761;BME280;41679;51.440;-2.012;2022-08-19T04:24:18;100343.63;;;16.47;100.00
55761;BME280;41679;51.440;-2.012;2022-08-19T04:26:44;100349.69;;;16.49;100.00
55761;BME280;41679;51.440;-2.012;2022-08-19T04:29:14;100342.91;;;16.52;100.00
55761;BME280;41679;51.440;-2.012;2022-08-19T04:31:42;100339.34;;;16.51;100.00
55761;BME280;41679;51.440;-2.012;2022-08-19T04:34:12;100345.53;;;16.47;100.00
55761;BME280;41679;51.440;-2.012;2022-08-19T04:36:39;100345.72;;;16.40;100.00
55761;BME280;41679;51.440;-2.012;2022-08-19T04:39:11;100340.59;;;16.32;100.00
55761;BME280;41679;51.440;-2.012;2022-08-19T04:41:39;100345.25;;;16.31;100.00
55761;BME280;41679;51.440;-2.012;2022-08-19T04:44:23;100346.56;;;16.29;100.00
55761;BME280;41679;51.440;-2.012;2022-08-19T04:46:50;100350.91;;;16.25;100.00
55761;BME280;41679;51.440;-2.012;2022-08-19T04:49:17;100349.56;;;16.27;100.00
55761;BME280;41679;51.440;-2.012;2022-08-19T04:51:44;100358.13;;;16.31;100.00
55761;BME280;41679;51.440;-2.012;2022-08-19T04:54:25;100348.38;;;16.23;100.00
55761;BME280;41679;51.440;-2.012;2022-08-19T04:56:51;100361.88;;;16.13;100.00
55761;BME280;41679;51.440;-2.012;2022-08-19T04:59:23;100350.91;;;16.13;100.00
55761;BME280;41679;51.440;-2.012;2022-08-19T05:01:52;100366.47;;;16.24;100.00
55761;BME280;41679;51.440;-2.012;2022-08-19T05:04:19;100361.09;;;16.29;100.00
55761;BME280;41679;51.440;-2.012;2022-08-19T05:06:47;100362.88;;;16.35;100.00
55761;BME280;41679;51.440;-2.012;2022-08-19T05:09:14;100361.63;;;16.43;100.00
55761;BME280;41679;51.440;-2.012;2022-08-19T05:11:40;100368.84;;;16.49;100.00
55761;BME280;41679;51.440;-2.012;2022-08-19T05:14:07;100374.69;;;16.53;100.00
55761;BME280;41679;51.440;-2.012;2022-08-19T05:16:33;100375.34;;;16.60;100.00
55761;BME280;41679;51.440;-2.012;2022-08-19T05:19:00;100380.31;;;16.63;100.00
55761;BME280;41679;51.440;-2.012;2022-08-19T05:21:44;100377.84;;;16.61;100.00
55761;BME280;41679;51.440;-2.012;2022-08-19T05:24:29;100383.72;;;16.53;100.00
55761;BME280;41679;51.440;-2.012;2022-08-19T05:26:55;100380.53;;;16.45;100.00
55761;BME280;41679;51.440;-2.012;2022-08-19T05:29:26;100377.59;;;16.34;100.00
55761;BME280;41679;51.440;-2.012;2022-08-19T05:31:53;100387.06;;;16.27;100.00
55761;BME280;41679;51.440;-2.012;2022-08-19T05:34:21;100382.31;;;16.22;100.00
55761;BME280;41679;51.440;-2.012;2022-08-19T05:36:51;100387.19;;;16.20;100.00
55761;BME280;41679;51.440;-2.012;2022-08-19T05:39:20;100390.41;;;16.17;100.00
55761;BME280;41679;51.440;-2.012;2022-08-19T05:41:50;100398.25;;;16.13;100.00
55761;BME280;41679;51.440;-2.012;2022-08-19T05:44:16;100407.41;;;16.19;100.00
55761;BME280;41679;51.440;-2.012;2022-08-19T05:46:46;100412.59;;;16.32;100.00
55761;BME280;41679;51.440;-2.012;2022-08-19T05:49:13;100408.41;;;16.41;100.00
55761;BME280;41679;51.440;-2.012;2022-08-19T05:51:39;100410.19;;;16.48;100.00
55761;BME280;41679;51.440;-2.012;2022-08-19T05:54:05;100421.13;;;16.48;100.00
55761;BME280;41679;51.440;-2.012;2022-08-19T05:56:36;100421.69;;;16.50;100.00
55761;BME280;41679;51.440;-2.012;2022-08-19T05:59:04;100417.06;;;16.50;100.00
55761;BME280;41679;51.440;-2.012;2022-08-19T06:01:36;100431.81;;;16.49;100.00
55761;BME280;41679;51.440;-2.012;2022-08-19T06:04:03;100430.66;;;16.45;100.00
55761;BME280;41679;51.440;-2.012;2022-08-19T06:06:30;100424.19;;;16.51;100.00
55761;BME280;41679;51.440;-2.012;2022-08-19T06:08:55;100423.69;;;16.54;100.00
55761;BME280;41679;51.440;-2.012;2022-08-19T06:13:49;100436.06;;;16.57;100.00
55761;BME280;41679;51.440;-2.012;2022-08-19T06:16:16;100440.88;;;16.78;100.00
55761;BME280;41679;51.440;-2.012;2022-08-19T06:18:46;100438.09;;;17.07;100.00
55761;BME280;41679;51.440;-2.012;2022-08-19T06:21:12;100437.03;;;17.25;100.00
55761;BME280;41679;51.440;-2.012;2022-08-19T06:23:37;100439.28;;;17.45;100.00
55761;BME280;41679;51.440;-2.012;2022-08-19T06:26:04;100437.84;;;17.59;100.00
55761;BME280;41679;51.440;-2.012;2022-08-19T06:28:29;100448.94;;;17.81;100.00
55761;BME280;41679;51.440;-2.012;2022-08-19T06:30:55;100451.25;;;18.11;100.00
55761;BME280;41679;51.440;-2.012;2022-08-19T06:33:20;100461.00;;;18.02;100.00
55761;BME280;41679;51.440;-2.012;2022-08-19T06:35:46;100458.28;;;17.85;100.00
55761;BME280;41679;51.440;-2.012;2022-08-19T06:38:11;100464.69;;;17.74;100.00
55761;BME280;41679;51.440;-2.012;2022-08-19T06:40:37;100464.13;;;17.89;100.00
55761;BME280;41679;51.440;-2.012;2022-08-19T06:43:03;100468.25;;;18.30;100.00
55761;BME280;41679;51.440;-2.012;2022-08-19T06:45:31;100469.50;;;18.67;100.00
55761;BME280;41679;51.440;-2.012;2022-08-19T06:47:56;100468.44;;;18.95;100.00
55761;BME280;41679;51.440;-2.012;2022-08-19T06:50:23;100472.28;;;19.21;100.00
55761;BME280;41679;51.440;-2.012;2022-08-19T06:52:48;100492.44;;;19.32;100.00
55761;BME280;41679;51.440;-2.012;2022-08-19T06:55:15;100484.66;;;19.23;100.00
55761;BME280;41679;51.440;-2.012;2022-08-19T06:57:41;100483.13;;;19.06;100.00
55761;BME280;41679;51.440;-2.012;2022-08-19T07:00:09;100496.75;;;19.22;100.00
55761;BME280;41679;51.440;-2.012;2022-08-19T07:02:41;100494.88;;;19.28;100.00
55761;BME280;41679;51.440;-2.012;2022-08-19T07:05:07;100505.94;;;19.33;100.00
55761;BME280;41679;51.440;-2.012;2022-08-19T07:07:32;100508.38;;;19.62;100.00
55761;BME280;41679;51.440;-2.012;2022-08-19T07:09:58;100513.75;;;19.74;100.00
55761;BME280;41679;51.440;-2.012;2022-08-19T07:12:24;100516.91;;;19.93;100.00
55761;BME280;41679;51.440;-2.012;2022-08-19T07:14:49;100528.28;;;20.06;100.00
55761;BME280;41679;51.440;-2.012;2022-08-19T07:17:16;100547.03;;;20.15;100.00
55761;BME280;41679;51.440;-2.012;2022-08-19T07:19:41;100552.00;;;20.13;100.00
55761;BME280;41679;51.440;-2.012;2022-08-19T07:22:08;100551.28;;;20.32;100.00
55761;BME280;41679;51.440;-2.012;2022-08-19T07:24:33;100554.31;;;20.31;100.00
55761;BME280;41679;51.440;-2.012;2022-08-19T07:27:02;100556.50;;;20.29;100.00
55761;BME280;41679;51.440;-2.012;2022-08-19T07:29:30;100557.69;;;20.48;100.00
55761;BME280;41679;51.440;-2.012;2022-08-19T07:31:59;100566.25;;;20.47;100.00
55761;BME280;41679;51.440;-2.012;2022-08-19T07:34:26;100563.00;;;20.55;100.00
55761;BME280;41679;51.440;-2.012;2022-08-19T07:36:54;100569.94;;;20.63;100.00
55761;BME280;41679;51.440;-2.012;2022-08-19T07:39:25;100569.03;;;20.52;100.00
55761;BME280;41679;51.440;-2.012;2022-08-19T07:41:52;100556.84;;;20.43;100.00
55761;BME280;41679;51.440;-2.012;2022-08-19T07:44:18;100567.31;;;20.46;100.00
55761;BME280;41679;51.440;-2.012;2022-08-19T07:46:47;100565.81;;;20.65;100.00
55761;BME280;41679;51.440;-2.012;2022-08-19T07:49:14;100562.22;;;20.60;100.00
55761;BME280;41679;51.440;-2.012;2022-08-19T07:52:03;100566.84;;;20.54;100.00
55761;BME280;41679;51.440;-2.012;2022-08-19T07:54:31;100579.47;;;20.50;100.00
55761;BME280;41679;51.440;-2.012;2022-08-19T07:57:01;100579.75;;;20.53;100.00
55761;BME280;41679;51.440;-2.012;2022-08-19T07:59:27;100588.63;;;20.56;100.00
55761;BME280;41679;51.440;-2.012;2022-08-19T08:01:54;100597.72;;;20.56;100.00
55761;BME280;41679;51.440;-2.012;2022-08-19T08:04:20;100595.00;;;20.61;100.00
55761;BME280;41679;51.440;-2.012;2022-08-19T08:07:07;100598.03;;;20.60;100.00
55761;BME280;41679;51.440;-2.012;2022-08-19T08:09:52;100590.28;;;20.57;100.00
55761;BME280;41679;51.440;-2.012;2022-08-19T08:12:44;100597.06;;;20.39;100.00
55761;BME280;41679;51.440;-2.012;2022-08-19T08:15:15;100598.41;;;20.41;100.00
55761;BME280;41679;51.440;-2.012;2022-08-19T08:17:42;100594.63;;;20.47;100.00
55761;BME280;41679;51.440;-2.012;2022-08-19T08:20:09;100607.09;;;20.55;100.00
55761;BME280;41679;51.440;-2.012;2022-08-19T08:22:35;100596.75;;;20.40;100.00
55761;BME280;41679;51.440;-2.012;2022-08-19T08:28:23;100607.00;;;20.07;100.00
55761;BME280;41679;51.440;-2.012;2022-08-19T08:30:49;100620.47;;;19.72;100.00
55761;BME280;41679;51.440;-2.012;2022-08-19T08:33:20;100626.78;;;19.45;100.00
55761;BME280;41679;51.440;-2.012;2022-08-19T08:35:48;100634.72;;;19.19;100.00
55761;BME280;41679;51.440;-2.012;2022-08-19T08:38:14;100633.63;;;19.20;100.00
55761;BME280;41679;51.440;-2.012;2022-08-19T08:40:50;100632.56;;;19.21;100.00
55761;BME280;41679;51.440;-2.012;2022-08-19T08:43:34;100643.66;;;19.32;100.00
55761;BME280;41679;51.440;-2.012;2022-08-19T08:46:08;100649.06;;;19.21;100.00
55761;BME280;41679;51.440;-2.012;2022-08-19T08:51:02;100641.94;;;18.82;100.00
55761;BME280;41679;51.440;-2.012;2022-08-19T08:53:30;100636.53;;;18.70;100.00
55761;BME280;41679;51.440;-2.012;2022-08-19T08:55:58;100649.44;;;18.69;100.00
55761;BME280;41679;51.440;-2.012;2022-08-19T08:58:36;100644.94;;;18.63;100.00
55761;BME280;41679;51.440;-2.012;2022-08-19T09:01:09;100654.09;;;18.69;100.00
55761;BME280;41679;51.440;-2.012;2022-08-19T09:03:37;100648.50;;;18.64;100.00
55761;BME280;41679;51.440;-2.012;2022-08-19T09:06:13;100655.03;;;18.57;100.00
55761;BME280;41679;51.440;-2.012;2022-08-19T09:17:07;100657.34;;;19.05;100.00
55761;BME280;41679;51.440;-2.012;2022-08-19T09:19:36;100666.41;;;19.05;100.00
55761;BME280;41679;51.440;-2.012;2022-08-19T09:22:01;100668.84;;;19.01;100.00
55761;BME280;41679;51.440;-2.012;2022-08-19T09:24:27;100660.16;;;18.88;100.00
55761;BME280;41679;51.440;-2.012;2022-08-19T09:26:52;100657.50;;;18.93;100.00
55761;BME280;41679;51.440;-2.012;2022-08-19T09:29:18;100662.09;;;19.09;100.00
55761;BME280;41679;51.440;-2.012;2022-08-19T09:31:43;100667.13;;;19.17;100.00
55761;BME280;41679;51.440;-2.012;2022-08-19T09:34:09;100672.56;;;19.34;100.00
55761;BME280;41679;51.440;-2.012;2022-08-19T09:36:34;100668.66;;;19.08;100.00
55761;BME280;41679;51.440;-2.012;2022-08-19T09:39:04;100660.84;;;19.00;100.00
55761;BME280;41679;51.440;-2.012;2022-08-19T09:41:31;100658.69;;;19.02;100.00
55761;BME280;41679;51.440;-2.012;2022-08-19T09:43:57;100663.94;;;19.04;100.00
55761;BME280;41679;51.440;-2.012;2022-08-19T09:46:26;100661.81;;;19.11;100.00
55761;BME280;41679;51.440;-2.012;2022-08-19T09:48:53;100661.75;;;19.28;100.00
55761;BME280;41679;51.440;-2.012;2022-08-19T09:51:22;100659.78;;;19.45;100.00
55761;BME280;41679;51.440;-2.012;2022-08-19T09:53:49;100653.59;;;19.60;100.00
55761;BME280;41679;51.440;-2.012;2022-08-19T09:56:18;100655.81;;;19.63;100.00
55761;BME280;41679;51.440;-2.012;2022-08-19T09:58:44;100651.34;;;19.79;100.00
55761;BME280;41679;51.440;-2.012;2022-08-19T10:01:19;100658.13;;;19.98;100.00
55761;BME280;41679;51.440;-2.012;2022-08-19T10:03:48;100653.78;;;20.02;100.00
55761;BME280;41679;51.440;-2.012;2022-08-19T10:06:14;100665.75;;;19.91;100.00
55761;BME280;41679;51.440;-2.012;2022-08-19T10:08:40;100665.72;;;19.86;100.00
55761;BME280;41679;51.440;-2.012;2022-08-19T10:11:06;100660.97;;;19.76;100.00
55761;BME280;41679;51.440;-2.012;2022-08-19T10:13:32;100667.53;;;19.75;100.00
55761;BME280;41679;51.440;-2.012;2022-08-19T10:16:09;100674.44;;;20.05;100.00
55761;BME280;41679;51.440;-2.012;2022-08-19T10:18:38;100669.53;;;20.12;100.00
55761;BME280;41679;51.440;-2.012;2022-08-19T10:21:17;100674.53;;;19.88;100.00
55761;BME280;41679;51.440;-2.012;2022-08-19T10:23:46;100669.50;;;19.80;100.00
55761;BME280;41679;51.440;-2.012;2022-08-19T10:26:16;100677.09;;;19.95;100.00
55761;BME280;41679;51.440;-2.012;2022-08-19T10:28:43;100669.72;;;20.00;100.00
55761;BME280;41679;51.440;-2.012;2022-08-19T10:31:31;100674.72;;;20.08;100.00
55761;BME280;41679;51.440;-2.012;2022-08-19T10:34:00;100689.28;;;20.04;100.00
55761;BME280;41679;51.440;-2.012;2022-08-19T10:36:30;100685.00;;;20.18;100.00
55761;BME280;41679;51.440;-2.012;2022-08-19T10:38:58;100674.59;;;20.58;100.00
55761;BME280;41679;51.440;-2.012;2022-08-19T10:41:29;100679.38;;;21.30;100.00
55761;BME280;41679;51.440;-2.012;2022-08-19T10:43:57;100673.47;;;21.79;100.00
55761;BME280;41679;51.440;-2.012;2022-08-19T10:46:26;100685.94;;;22.18;100.00
55761;BME280;41679;51.440;-2.012;2022-08-19T10:48:52;100674.31;;;22.11;100.00
55761;BME280;41679;51.440;-2.012;2022-08-19T10:51:19;100682.38;;;22.33;100.00
55761;BME280;41679;51.440;-2.012;2022-08-19T10:54:04;100672.72;;;22.30;100.00
55761;BME280;41679;51.440;-2.012;2022-08-19T10:56:30;100671.59;;;22.36;100.00
55761;BME280;41679;51.440;-2.012;2022-08-19T10:59:22;100685.69;;;22.35;100.00
55761;BME280;41679;51.440;-2.012;2022-08-19T11:01:53;100688.16;;;22.41;100.00
55761;BME280;41679;51.440;-2.012;2022-08-19T11:04:19;100671.88;;;22.19;100.00
55761;BME280;41679;51.440;-2.012;2022-08-19T11:06:48;100671.59;;;22.00;100.00
55761;BME280;41679;51.440;-2.012;2022-08-19T11:09:39;100680.38;;;21.82;100.00
55761;BME280;41679;51.440;-2.012;2022-08-19T11:12:06;100676.47;;;21.62;100.00
55761;BME280;41679;51.440;-2.012;2022-08-19T11:14:34;100674.56;;;21.68;100.00
55761;BME280;41679;51.440;-2.012;2022-08-19T11:17:00;100667.91;;;21.54;100.00
55761;BME280;41679;51.440;-2.012;2022-08-19T11:19:25;100672.59;;;21.58;100.00
55761;BME280;41679;51.440;-2.012;2022-08-19T11:21:52;100679.50;;;21.61;100.00
55761;BME280;41679;51.440;-2.012;2022-08-19T11:24:23;100669.81;;;21.53;100.00
55761;BME280;41679;51.440;-2.012;2022-08-19T11:26:51;100678.16;;;21.74;100.00
55761;BME280;41679;51.440;-2.012;2022-08-19T11:29:20;100682.06;;;22.09;100.00
55761;BME280;41679;51.440;-2.012;2022-08-19T11:31:47;100682.63;;;22.21;100.00
55761;BME280;41679;51.440;-2.012;2022-08-19T11:34:17;100687.03;;;22.06;100.00
55761;BME280;41679;51.440;-2.012;2022-08-19T11:36:45;100676.50;;;21.78;100.00
55761;BME280;41679;51.440;-2.012;2022-08-19T11:39:15;100677.34;;;21.89;100.00
55761;BME280;41679;51.440;-2.012;2022-08-19T11:41:41;100682.03;;;21.83;100.00
55761;BME280;41679;51.440;-2.012;2022-08-19T11:44:07;100682.69;;;21.37;100.00
55761;BME280;41679;51.440;-2.012;2022-08-19T11:46:33;100676.50;;;21.05;100.00
55761;BME280;41679;51.440;-2.012;2022-08-19T11:49:00;100670.19;;;21.09;100.00
55761;BME280;41679;51.440;-2.012;2022-08-19T11:51:26;100671.03;;;21.10;100.00
55761;BME280;41679;51.440;-2.012;2022-08-19T11:53:54;100669.97;;;21.21;100.00
55761;BME280;41679;51.440;-2.012;2022-08-19T11:56:21;100677.00;;;21.49;100.00
55761;BME280;41679;51.440;-2.012;2022-08-19T11:58:47;100677.59;;;21.67;100.00
55761;BME280;41679;51.440;-2.012;2022-08-19T12:01:16;100671.00;;;21.88;100.00
55761;BME280;41679;51.440;-2.012;2022-08-19T12:03:43;100680.88;;;21.58;100.00
55761;BME280;41679;51.440;-2.012;2022-08-19T12:06:12;100675.38;;;21.69;100.00
55761;BME280;41679;51.440;-2.012;2022-08-19T12:08:40;100667.72;;;22.12;100.00
55761;BME280;41679;51.440;-2.012;2022-08-19T12:11:05;100674.91;;;22.23;100.00
55761;BME280;41679;51.440;-2.012;2022-08-19T12:13:33;100673.25;;;22.58;100.00
55761;BME280;41679;51.440;-2.012;2022-08-19T12:16:00;100667.16;;;22.61;100.00
55761;BME280;41679;51.440;-2.012;2022-08-19T12:18:26;100676.00;;;22.53;100.00
55761;BME280;41679;51.440;-2.012;2022-08-19T12:20:53;100688.47;;;22.40;100.00
55761;BME280;41679;51.440;-2.012;2022-08-19T12:23:20;100687.06;;;22.37;100.00
55761;BME280;41679;51.440;-2.012;2022-08-19T12:25:47;100682.63;;;22.46;100.00
55761;BME280;41679;51.440;-2.012;2022-08-19T12:28:18;100683.41;;;22.72;100.00
55761;BME280;41679;51.440;-2.012;2022-08-19T12:30:44;100687.59;;;22.65;100.00
55761;BME280;41679;51.440;-2.012;2022-08-19T12:33:09;100683.19;;;22.48;100.00
55761;BME280;41679;51.440;-2.012;2022-08-19T12:35:35;100695.06;;;22.39;100.00
55761;BME280;41679;51.440;-2.012;2022-08-19T12:38:01;100698.69;;;22.24;100.00
55761;BME280;41679;51.440;-2.012;2022-08-19T12:40:28;100689.22;;;22.04;100.00
55761;BME280;41679;51.440;-2.012;2022-08-19T12:42:54;100690.91;;;22.00;100.00
55761;BME280;41679;51.440;-2.012;2022-08-19T12:45:20;100692.88;;;22.20;100.00
55761;BME280;41679;51.440;-2.012;2022-08-19T12:47:45;100693.38;;;22.07;100.00
55761;BME280;41679;51.440;-2.012;2022-08-19T12:50:11;100698.09;;;22.17;100.00
55761;BME280;41679;51.440;-2.012;2022-08-19T12:52:38;100694.53;;;22.26;100.00
55761;BME280;41679;51.440;-2.012;2022-08-19T12:55:06;100694.22;;;22.18;100.00
55761;BME280;41679;51.440;-2.012;2022-08-19T12:57:32;100688.16;;;22.41;100.00
55761;BME280;41679;51.440;-2.012;2022-08-19T13:00:09;100701.97;;;22.52;100.00
55761;BME280;41679;51.440;-2.012;2022-08-19T13:02:38;100692.28;;;22.75;100.00